sensor_id;sensor_type;location;lat;lon;timestamp;P1;durP1;ratioP1;P2;durP2;ratioP2
4756;SDS011;2392;52.578;13.426;2022-08-21T00:00:29;9.70;;;8.70;;
4756;SDS011;2392;52.578;13.426;2022-08-21T00:02:57;12.00;;;8.83;;
4756;SDS011;2392;52.578;13.426;2022-08-21T00:05:27;12.30;;;8.07;;
4756;SDS011;2392;52.578;13.426;2022-08-21T00:07:54;9.33;;;8.43;;
4756;SDS011;2392;52.578;13.426;2022-08-21T00:10:23;10.30;;;9.30;;
4756;SDS011;2392;52.578;13.426;2022-08-21T00:12:51;9.07;;;7.80;;
4756;SDS011;2392;52.578;13.426;2022-08-21T00:15:20;10.53;;;9.63;;
4756;SDS011;2392;52.578;13.426;2022-08-21T00:17:51;10.27;;;9.27;;
4756;SDS011;2392;52.578;13.426;2022-08-21T00:20:18;10.40;;;9.43;;
4756;SDS011;2392;52.578;13.426;2022-08-21T00:22:45;9.47;;;8.47;;
4756;SDS011;2392;52.578;13.426;2022-08-21T00:25:13;11.17;;;9.20;;
4756;SDS011;2392;52.578;13.426;2022-08-21T00:27:42;9.30;;;8.50;;
4756;SDS011;2392;52.578;13.426;2022-08-21T00:30:11;10.60;;;9.20;;
4756;SDS011;2392;52.578;13.426;2022-08-21T00:32:47;9.97;;;9.07;;
4756;SDS011;2392;52.578;13.426;2022-08-21T00:35:17;9.43;;;8.57;;
4756;SDS011;2392;52.578;13.426;2022-08-21T00:37:47;9.73;;;8.77;;
4756;SDS011;2392;52.578;13.426;2022-08-21T00:40:15;9.47;;;8.53;;
4756;SDS011;2392;52.578;13.426;2022-08-21T00:42:45;10.83;;;8.63;;
4756;SDS011;2392;52.578;13.426;2022-08-21T00:45:13;10.10;;;9.20;;
4756;SDS011;2392;52.578;13.426;2022-08-21T00:47:40;9.00;;;7.77;;
4756;SDS011;2392;52.578;13.426;2022-08-21T00:50:08;9.27;;;8.37;;
4756;SDS011;2392;52.578;13.426;2022-08-21T00:52:36;9.00;;;8.10;;
4756;SDS011;2392;52.578;13.426;2022-08-21T00:55:04;10.00;;;8.97;;
4756;SDS011;2392;52.578;13.426;2022-08-21T00:57:34;12.87;;;8.77;;
4756;SDS011;2392;52.578;13.426;2022-08-21T01:00:08;9.60;;;8.70;;
4756;SDS011;2392;52.578;13.426;2022-08-21T01:02:37;10.93;;;8.53;;
4756;SDS011;2392;52.578;13.426;2022-08-21T01:05:04;8.77;;;7.77;;
4756;SDS011;2392;52.578;13.426;2022-08-21T01:07:32;12.53;;;8.57;;
4756;SDS011;2392;52.578;13.426;2022-08-21T01:09:59;10.77;;;9.77;;
4756;SDS011;2392;52.578;13.426;2022-08-21T01:12:26;12.53;;;8.50;;
4756;SDS011;2392;52.578;13.426;2022-08-21T01:14:53;10.17;;;9.27;;
4756;SDS011;2392;52.578;13.426;2022-08-21T01:17:21;9.00;;;8.20;;
4756;SDS011;2392;52.578;13.426;2022-08-21T01:19:49;8.90;;;8.10;;
4756;SDS011;2392;52.578;13.426;2022-08-21T01:22:17;8.63;;;7.60;;
4756;SDS011;2392;52.578;13.426;2022-08-21T01:24:44;8.30;;;7.57;;
4756;SDS011;2392;52.578;13.426;2022-08-21T01:27:11;8.70;;;8.00;;
4756;SDS011;2392;52.578;13.426;2022-08-21T01:29:39;8.60;;;7.73;;
4756;SDS011;2392;52.578;13.426;2022-08-21T01:32:11;8.80;;;7.87;;
4756;SDS011;2392;52.578;13.426;2022-08-21T01:34:42;10.80;;;9.70;;
4756;SDS011;2392;52.578;13.426;2022-08-21T01:37:11;9.67;;;7.97;;
4756;SDS011;2392;52.578;13.426;2022-08-21T01:39:40;9.10;;;8.23;;
4756;SDS011;2392;52.578;13.426;2022-08-21T01:42:07;9.97;;;8.20;;
4756;SDS011;2392;52.578;13.426;2022-08-21T01:44:35;8.60;;;7.80;;
4756;SDS011;2392;52.578;13.426;2022-08-21T01:47:03;9.60;;;8.77;;
4756;SDS011;2392;52.578;13.426;2022-08-21T01:49:32;9.43;;;8.53;;
4756;SDS011;2392;52.578;13.426;2022-08-21T01:51:59;10.03;;;8.83;;
4756;SDS011;2392;52.578;13.426;2022-08-21T01:54:26;9.27;;;7.43;;
4756;SDS011;2392;52.578;13.426;2022-08-21T01:56:55;8.70;;;7.43;;
4756;SDS011;2392;52.578;13.426;2022-08-21T01:59:23;8.83;;;8.03;;
4756;SDS011;2392;52.578;13.426;2022-08-21T02:01:51;7.40;;;6.70;;
4756;SDS011;2392;52.578;13.426;2022-08-21T02:04:19;7.73;;;7.03;;
4756;SDS011;2392;52.578;13.426;2022-08-21T02:06:46;9.10;;;6.90;;
4756;SDS011;2392;52.578;13.426;2022-08-21T02:09:13;8.10;;;7.30;;
4756;SDS011;2392;52.578;13.426;2022-08-21T02:11:41;8.03;;;7.03;;
4756;SDS011;2392;52.578;13.426;2022-08-21T02:14:10;9.23;;;7.60;;
4756;SDS011;2392;52.578;13.426;2022-08-21T02:16:39;7.77;;;7.07;;
4756;SDS011;2392;52.578;13.426;2022-08-21T02:19:07;7.63;;;6.93;;
4756;SDS011;2392;52.578;13.426;2022-08-21T02:21:35;7.87;;;7.17;;
4756;SDS011;2392;52.578;13.426;2022-08-21T02:24:02;11.50;;;6.73;;
4756;SDS011;2392;52.578;13.426;2022-08-21T02:26:29;9.40;;;6.87;;
4756;SDS011;2392;52.578;13.426;2022-08-21T02:28:56;9.20;;;6.63;;
4756;SDS011;2392;52.578;13.426;2022-08-21T02:31:25;8.17;;;6.27;;
4756;SDS011;2392;52.578;13.426;2022-08-21T02:33:52;6.63;;;6.00;;
4756;SDS011;2392;52.578;13.426;2022-08-21T02:36:19;7.10;;;6.40;;
4756;SDS011;2392;52.578;13.426;2022-08-21T02:38:46;6.30;;;5.70;;
4756;SDS011;2392;52.578;13.426;2022-08-21T02:41:13;8.43;;;6.40;;
4756;SDS011;2392;52.578;13.426;2022-08-21T02:43:43;7.77;;;6.00;;
4756;SDS011;2392;52.578;13.426;2022-08-21T02:46:11;6.87;;;5.90;;
4756;SDS011;2392;52.578;13.426;2022-08-21T02:48:41;8.40;;;6.00;;
4756;SDS011;2392;52.578;13.426;2022-08-21T02:51:09;21.80;;;7.20;;
4756;SDS011;2392;52.578;13.426;2022-08-21T02:53:39;9.63;;;6.20;;
4756;SDS011;2392;52.578;13.426;2022-08-21T02:56:07;9.90;;;5.53;;
4756;SDS011;2392;52.578;13.426;2022-08-21T02:58:37;7.97;;;5.13;;
4756;SDS011;2392;52.578;13.426;2022-08-21T03:01:07;8.60;;;5.60;;
4756;SDS011;2392;52.578;13.426;2022-08-21T03:03:35;6.00;;;5.10;;
4756;SDS011;2392;52.578;13.426;2022-08-21T03:06:05;7.10;;;5.60;;
4756;SDS011;2392;52.578;13.426;2022-08-21T03:08:34;5.80;;;5.30;;
4756;SDS011;2392;52.578;13.426;2022-08-21T03:11:01;10.33;;;4.83;;
4756;SDS011;2392;52.578;13.426;2022-08-21T03:13:28;6.43;;;4.60;;
4756;SDS011;2392;52.578;13.426;2022-08-21T03:15:55;10.00;;;5.40;;
4756;SDS011;2392;52.578;13.426;2022-08-21T03:18:22;5.80;;;5.20;;
4756;SDS011;2392;52.578;13.426;2022-08-21T03:20:50;10.37;;;5.50;;
4756;SDS011;2392;52.578;13.426;2022-08-21T03:23:18;9.43;;;5.80;;
4756;SDS011;2392;52.578;13.426;2022-08-21T03:25:46;5.93;;;4.73;;
4756;SDS011;2392;52.578;13.426;2022-08-21T03:28:16;8.73;;;5.37;;
4756;SDS011;2392;52.578;13.426;2022-08-21T03:30:44;8.43;;;5.37;;
4756;SDS011;2392;52.578;13.426;2022-08-21T03:33:13;5.70;;;4.80;;
4756;SDS011;2392;52.578;13.426;2022-08-21T03:35:40;5.23;;;4.63;;
4756;SDS011;2392;52.578;13.426;2022-08-21T03:38:08;6.10;;;5.20;;
4756;SDS011;2392;52.578;13.426;2022-08-21T03:40:39;8.77;;;5.17;;
4756;SDS011;2392;52.578;13.426;2022-08-21T03:43:06;10.30;;;4.40;;
4756;SDS011;2392;52.578;13.426;2022-08-21T03:45:34;5.13;;;4.70;;
4756;SDS011;2392;52.578;13.426;2022-08-21T03:48:01;8.37;;;4.70;;
4756;SDS011;2392;52.578;13.426;2022-08-21T03:50:31;9.37;;;4.60;;
4756;SDS011;2392;52.578;13.426;2022-08-21T03:53:00;7.83;;;4.87;;
4756;SDS011;2392;52.578;13.426;2022-08-21T03:55:27;12.63;;;5.20;;
4756;SDS011;2392;52.578;13.426;2022-08-21T03:57:55;5.80;;;4.30;;
4756;SDS011;2392;52.578;13.426;2022-08-21T04:00:22;8.37;;;5.57;;
4756;SDS011;2392;52.578;13.426;2022-08-21T04:02:51;12.47;;;5.23;;
4756;SDS011;2392;52.578;13.426;2022-08-21T04:05:18;5.33;;;3.90;;
4756;SDS011;2392;52.578;13.426;2022-08-21T04:07:53;5.43;;;3.80;;
4756;SDS011;2392;52.578;13.426;2022-08-21T04:10:21;5.63;;;3.83;;
4756;SDS011;2392;52.578;13.426;2022-08-21T04:12:49;8.37;;;4.30;;
4756;SDS011;2392;52.578;13.426;2022-08-21T04:15:17;6.27;;;3.90;;
4756;SDS011;2392;52.578;13.426;2022-08-21T04:17:45;5.73;;;4.10;;
4756;SDS011;2392;52.578;13.426;2022-08-21T04:20:12;12.50;;;4.60;;
4756;SDS011;2392;52.578;13.426;2022-08-21T04:22:39;6.57;;;3.53;;
4756;SDS011;2392;52.578;13.426;2022-08-21T04:25:06;4.90;;;4.23;;
4756;SDS011;2392;52.578;13.426;2022-08-21T04:27:33;6.60;;;4.70;;
4756;SDS011;2392;52.578;13.426;2022-08-21T04:30:00;4.80;;;4.30;;
4756;SDS011;2392;52.578;13.426;2022-08-21T04:32:28;6.23;;;4.73;;
4756;SDS011;2392;52.578;13.426;2022-08-21T04:34:58;6.03;;;4.13;;
4756;SDS011;2392;52.578;13.426;2022-08-21T04:37:27;10.40;;;4.67;;
4756;SDS011;2392;52.578;13.426;2022-08-21T04:39:54;8.50;;;4.00;;
4756;SDS011;2392;52.578;13.426;2022-08-21T04:42:22;7.63;;;4.00;;
4756;SDS011;2392;52.578;13.426;2022-08-21T04:44:50;6.83;;;4.70;;
4756;SDS011;2392;52.578;13.426;2022-08-21T04:47:18;9.17;;;4.73;;
4756;SDS011;2392;52.578;13.426;2022-08-21T04:49:47;5.77;;;3.93;;
4756;SDS011;2392;52.578;13.426;2022-08-21T04:52:15;4.20;;;3.17;;
4756;SDS011;2392;52.578;13.426;2022-08-21T04:54:45;6.73;;;3.43;;
4756;SDS011;2392;52.578;13.426;2022-08-21T04:57:14;4.20;;;3.40;;
4756;SDS011;2392;52.578;13.426;2022-08-21T04:59:44;5.90;;;3.63;;
4756;SDS011;2392;52.578;13.426;2022-08-21T05:02:14;4.20;;;3.50;;
4756;SDS011;2392;52.578;13.426;2022-08-21T05:04:43;8.50;;;3.70;;
4756;SDS011;2392;52.578;13.426;2022-08-21T05:07:15;5.73;;;3.50;;
4756;SDS011;2392;52.578;13.426;2022-08-21T05:09:45;8.33;;;4.00;;
4756;SDS011;2392;52.578;13.426;2022-08-21T05:12:15;8.70;;;4.23;;
4756;SDS011;2392;52.578;13.426;2022-08-21T05:14:43;14.87;;;3.93;;
4756;SDS011;2392;52.578;13.426;2022-08-21T05:17:09;5.30;;;3.60;;
4756;SDS011;2392;52.578;13.426;2022-08-21T05:19:36;4.17;;;3.77;;
4756;SDS011;2392;52.578;13.426;2022-08-21T05:22:05;13.47;;;4.03;;
4756;SDS011;2392;52.578;13.426;2022-08-21T05:24:32;5.30;;;3.30;;
4756;SDS011;2392;52.578;13.426;2022-08-21T05:26:59;7.10;;;3.23;;
4756;SDS011;2392;52.578;13.426;2022-08-21T05:29:26;4.53;;;3.40;;
4756;SDS011;2392;52.578;13.426;2022-08-21T05:31:56;7.20;;;4.03;;
4756;SDS011;2392;52.578;13.426;2022-08-21T05:34:23;19.23;;;4.20;;
4756;SDS011;2392;52.578;13.426;2022-08-21T05:36:50;4.93;;;2.90;;
4756;SDS011;2392;52.578;13.426;2022-08-21T05:39:18;10.77;;;4.30;;
4756;SDS011;2392;52.578;13.426;2022-08-21T05:41:45;7.60;;;3.37;;
4756;SDS011;2392;52.578;13.426;2022-08-21T05:44:12;7.00;;;3.27;;
4756;SDS011;2392;52.578;13.426;2022-08-21T05:46:39;7.80;;;3.50;;
4756;SDS011;2392;52.578;13.426;2022-08-21T05:49:07;7.20;;;3.40;;
4756;SDS011;2392;52.578;13.426;2022-08-21T05:51:34;6.87;;;2.80;;
4756;SDS011;2392;52.578;13.426;2022-08-21T05:54:01;5.53;;;3.17;;
4756;SDS011;2392;52.578;13.426;2022-08-21T05:56:29;4.20;;;2.67;;
4756;SDS011;2392;52.578;13.426;2022-08-21T05:58:56;7.93;;;3.20;;
4756;SDS011;2392;52.578;13.426;2022-08-21T06:01:23;6.30;;;2.83;;
4756;SDS011;2392;52.578;13.426;2022-08-21T06:03:50;7.03;;;3.03;;
4756;SDS011;2392;52.578;13.426;2022-08-21T06:06:17;6.80;;;3.27;;
4756;SDS011;2392;52.578;13.426;2022-08-21T06:08:44;5.43;;;2.43;;
4756;SDS011;2392;52.578;13.426;2022-08-21T06:11:11;4.47;;;2.30;;
4756;SDS011;2392;52.578;13.426;2022-08-21T06:13:39;6.10;;;2.87;;
4756;SDS011;2392;52.578;13.426;2022-08-21T06:16:08;6.73;;;2.80;;
4756;SDS011;2392;52.578;13.426;2022-08-21T06:18:36;9.57;;;3.80;;
4756;SDS011;2392;52.578;13.426;2022-08-21T06:21:04;7.70;;;3.40;;
4756;SDS011;2392;52.578;13.426;2022-08-21T06:23:31;7.60;;;3.07;;
4756;SDS011;2392;52.578;13.426;2022-08-21T06:25:59;5.30;;;2.90;;
4756;SDS011;2392;52.578;13.426;2022-08-21T06:28:26;6.50;;;3.00;;
4756;SDS011;2392;52.578;13.426;2022-08-21T06:30:55;5.60;;;2.43;;
4756;SDS011;2392;52.578;13.426;2022-08-21T06:33:21;5.07;;;2.40;;
4756;SDS011;2392;52.578;13.426;2022-08-21T06:35:48;4.33;;;2.40;;
4756;SDS011;2392;52.578;13.426;2022-08-21T06:38:15;6.20;;;2.60;;
4756;SDS011;2392;52.578;13.426;2022-08-21T06:40:43;4.03;;;2.70;;
4756;SDS011;2392;52.578;13.426;2022-08-21T06:43:10;2.90;;;2.20;;
4756;SDS011;2392;52.578;13.426;2022-08-21T06:45:39;5.03;;;2.13;;
4756;SDS011;2392;52.578;13.426;2022-08-21T06:48:07;4.70;;;2.60;;
4756;SDS011;2392;52.578;13.426;2022-08-21T06:50:34;9.83;;;2.83;;
4756;SDS011;2392;52.578;13.426;2022-08-21T06:53:02;3.40;;;2.73;;
4756;SDS011;2392;52.578;13.426;2022-08-21T06:55:32;11.17;;;3.13;;
4756;SDS011;2392;52.578;13.426;2022-08-21T06:57:59;4.60;;;2.07;;
4756;SDS011;2392;52.578;13.426;2022-08-21T07:00:26;4.37;;;3.13;;
4756;SDS011;2392;52.578;13.426;2022-08-21T07:02:53;5.33;;;2.10;;
4756;SDS011;2392;52.578;13.426;2022-08-21T07:05:22;9.20;;;2.30;;
4756;SDS011;2392;52.578;13.426;2022-08-21T07:07:51;5.37;;;2.30;;
4756;SDS011;2392;52.578;13.426;2022-08-21T07:10:18;4.70;;;2.10;;
4756;SDS011;2392;52.578;13.426;2022-08-21T07:12:45;10.90;;;2.60;;
4756;SDS011;2392;52.578;13.426;2022-08-21T07:15:12;5.93;;;2.57;;
4756;SDS011;2392;52.578;13.426;2022-08-21T07:17:38;3.50;;;2.10;;
4756;SDS011;2392;52.578;13.426;2022-08-21T07:20:06;7.33;;;2.30;;
4756;SDS011;2392;52.578;13.426;2022-08-21T07:22:34;6.90;;;2.67;;
4756;SDS011;2392;52.578;13.426;2022-08-21T07:25:04;8.57;;;3.00;;
4756;SDS011;2392;52.578;13.426;2022-08-21T07:27:32;6.13;;;2.60;;
4756;SDS011;2392;52.578;13.426;2022-08-21T07:29:59;11.50;;;2.10;;
4756;SDS011;2392;52.578;13.426;2022-08-21T07:32:26;6.60;;;2.40;;
4756;SDS011;2392;52.578;13.426;2022-08-21T07:34:53;3.60;;;2.00;;
4756;SDS011;2392;52.578;13.426;2022-08-21T07:37:19;6.77;;;2.10;;
4756;SDS011;2392;52.578;13.426;2022-08-21T07:39:48;3.63;;;2.30;;
4756;SDS011;2392;52.578;13.426;2022-08-21T07:42:16;7.13;;;2.40;;
4756;SDS011;2392;52.578;13.426;2022-08-21T07:44:43;5.97;;;2.97;;
4756;SDS011;2392;52.578;13.426;2022-08-21T07:47:10;4.33;;;2.10;;
4756;SDS011;2392;52.578;13.426;2022-08-21T07:49:36;4.23;;;2.20;;
4756;SDS011;2392;52.578;13.426;2022-08-21T07:52:03;6.87;;;2.90;;
4756;SDS011;2392;52.578;13.426;2022-08-21T07:54:30;3.43;;;2.00;;
4756;SDS011;2392;52.578;13.426;2022-08-21T07:56:59;6.03;;;2.07;;
4756;SDS011;2392;52.578;13.426;2022-08-21T07:59:26;6.93;;;2.07;;
4756;SDS011;2392;52.578;13.426;2022-08-21T08:01:52;3.63;;;1.80;;
4756;SDS011;2392;52.578;13.426;2022-08-21T08:04:19;4.30;;;1.90;;
4756;SDS011;2392;52.578;13.426;2022-08-21T08:06:46;6.37;;;2.20;;
4756;SDS011;2392;52.578;13.426;2022-08-21T08:09:13;3.90;;;2.30;;
4756;SDS011;2392;52.578;13.426;2022-08-21T08:11:41;5.13;;;2.10;;
4756;SDS011;2392;52.578;13.426;2022-08-21T08:14:10;6.83;;;2.03;;
4756;SDS011;2392;52.578;13.426;2022-08-21T08:16:37;3.93;;;1.70;;
4756;SDS011;2392;52.578;13.426;2022-08-21T08:19:04;5.67;;;1.97;;
4756;SDS011;2392;52.578;13.426;2022-08-21T08:21:31;3.77;;;1.80;;
4756;SDS011;2392;52.578;13.426;2022-08-21T08:23:58;4.37;;;1.70;;
4756;SDS011;2392;52.578;13.426;2022-08-21T08:26:25;6.83;;;2.10;;
4756;SDS011;2392;52.578;13.426;2022-08-21T08:28:52;5.03;;;2.23;;
4756;SDS011;2392;52.578;13.426;2022-08-21T08:31:21;2.97;;;1.60;;
4756;SDS011;2392;52.578;13.426;2022-08-21T08:33:48;4.13;;;2.17;;
4756;SDS011;2392;52.578;13.426;2022-08-21T08:36:16;5.67;;;1.97;;
4756;SDS011;2392;52.578;13.426;2022-08-21T08:38:44;4.83;;;2.40;;
4756;SDS011;2392;52.578;13.426;2022-08-21T08:41:13;4.43;;;2.10;;
4756;SDS011;2392;52.578;13.426;2022-08-21T08:43:44;4.47;;;2.33;;
4756;SDS011;2392;52.578;13.426;2022-08-21T08:46:15;3.23;;;1.70;;
4756;SDS011;2392;52.578;13.426;2022-08-21T08:48:47;5.93;;;2.43;;
4756;SDS011;2392;52.578;13.426;2022-08-21T08:51:19;6.20;;;2.17;;
4756;SDS011;2392;52.578;13.426;2022-08-21T08:53:51;6.47;;;2.27;;
4756;SDS011;2392;52.578;13.426;2022-08-21T08:56:27;2.90;;;1.83;;
4756;SDS011;2392;52.578;13.426;2022-08-21T08:58:58;3.80;;;2.23;;
4756;SDS011;2392;52.578;13.426;2022-08-21T09:01:28;2.27;;;1.80;;
4756;SDS011;2392;52.578;13.426;2022-08-21T09:03:56;4.37;;;2.00;;
4756;SDS011;2392;52.578;13.426;2022-08-21T09:06:28;5.60;;;2.00;;
4756;SDS011;2392;52.578;13.426;2022-08-21T09:09:06;3.77;;;1.70;;
4756;SDS011;2392;52.578;13.426;2022-08-21T09:11:52;5.90;;;1.90;;
4756;SDS011;2392;52.578;13.426;2022-08-21T09:14:32;7.60;;;1.83;;
4756;SDS011;2392;52.578;13.426;2022-08-21T09:17:23;4.47;;;2.97;;
4756;SDS011;2392;52.578;13.426;2022-08-21T09:20:10;4.93;;;2.00;;
4756;SDS011;2392;52.578;13.426;2022-08-21T09:22:47;4.90;;;2.30;;
4756;SDS011;2392;52.578;13.426;2022-08-21T09:25:24;3.60;;;2.13;;
4756;SDS011;2392;52.578;13.426;2022-08-21T09:27:53;4.23;;;2.10;;
4756;SDS011;2392;52.578;13.426;2022-08-21T09:30:24;4.20;;;1.97;;
4756;SDS011;2392;52.578;13.426;2022-08-21T09:32:54;4.33;;;2.10;;
4756;SDS011;2392;52.578;13.426;2022-08-21T09:35:23;4.33;;;1.50;;
4756;SDS011;2392;52.578;13.426;2022-08-21T09:37:52;3.43;;;1.63;;
4756;SDS011;2392;52.578;13.426;2022-08-21T09:40:26;4.47;;;1.90;;
4756;SDS011;2392;52.578;13.426;2022-08-21T09:42:56;4.07;;;1.70;;
4756;SDS011;2392;52.578;13.426;2022-08-21T09:45:25;3.03;;;1.70;;
4756;SDS011;2392;52.578;13.426;2022-08-21T09:47:52;3.70;;;2.10;;
4756;SDS011;2392;52.578;13.426;2022-08-21T09:50:20;4.27;;;1.90;;
4756;SDS011;2392;52.578;13.426;2022-08-21T09:52:51;5.80;;;2.07;;
4756;SDS011;2392;52.578;13.426;2022-08-21T09:55:22;4.37;;;2.00;;
4756;SDS011;2392;52.578;13.426;2022-08-21T09:58:14;3.00;;;1.97;;
4756;SDS011;2392;52.578;13.426;2022-08-21T10:00:42;8.23;;;1.97;;
4756;SDS011;2392;52.578;13.426;2022-08-21T10:03:11;4.90;;;2.00;;
4756;SDS011;2392;52.578;13.426;2022-08-21T10:05:49;4.70;;;2.13;;
4756;SDS011;2392;52.578;13.426;2022-08-21T10:08:20;3.80;;;2.07;;
4756;SDS011;2392;52.578;13.426;2022-08-21T10:10:50;2.80;;;1.60;;
4756;SDS011;2392;52.578;13.426;2022-08-21T10:13:21;6.00;;;2.90;;
4756;SDS011;2392;52.578;13.426;2022-08-21T10:15:58;4.90;;;2.27;;
4756;SDS011;2392;52.578;13.426;2022-08-21T10:18:35;7.17;;;2.50;;
4756;SDS011;2392;52.578;13.426;2022-08-21T10:21:12;4.90;;;1.67;;
4756;SDS011;2392;52.578;13.426;2022-08-21T10:23:53;3.50;;;1.80;;
4756;SDS011;2392;52.578;13.426;2022-08-21T10:26:31;7.90;;;2.10;;
4756;SDS011;2392;52.578;13.426;2022-08-21T10:29:06;3.10;;;1.70;;
4756;SDS011;2392;52.578;13.426;2022-08-21T10:31:42;4.33;;;2.00;;
4756;SDS011;2392;52.578;13.426;2022-08-21T10:34:22;3.40;;;1.70;;
4756;SDS011;2392;52.578;13.426;2022-08-21T10:37:01;2.30;;;2.10;;
4756;SDS011;2392;52.578;13.426;2022-08-21T10:39:36;5.40;;;2.07;;
4756;SDS011;2392;52.578;13.426;2022-08-21T10:42:17;3.03;;;1.77;;
4756;SDS011;2392;52.578;13.426;2022-08-21T10:44:54;5.40;;;1.90;;
4756;SDS011;2392;52.578;13.426;2022-08-21T10:47:30;6.67;;;2.40;;
4756;SDS011;2392;52.578;13.426;2022-08-21T10:50:03;2.07;;;1.80;;
4756;SDS011;2392;52.578;13.426;2022-08-21T10:52:42;6.57;;;1.80;;
4756;SDS011;2392;52.578;13.426;2022-08-21T10:55:31;3.83;;;2.17;;
4756;SDS011;2392;52.578;13.426;2022-08-21T10:58:02;3.33;;;1.93;;
4756;SDS011;2392;52.578;13.426;2022-08-21T11:00:36;4.33;;;2.03;;
4756;SDS011;2392;52.578;13.426;2022-08-21T11:03:08;3.40;;;1.87;;
4756;SDS011;2392;52.578;13.426;2022-08-21T11:05:40;5.30;;;2.20;;
4756;SDS011;2392;52.578;13.426;2022-08-21T11:08:13;2.37;;;1.50;;
4756;SDS011;2392;52.578;13.426;2022-08-21T11:10:45;5.90;;;1.83;;
4756;SDS011;2392;52.578;13.426;2022-08-21T11:13:17;2.40;;;1.50;;
4756;SDS011;2392;52.578;13.426;2022-08-21T11:15:51;1.70;;;1.60;;
4756;SDS011;2392;52.578;13.426;2022-08-21T11:18:24;2.20;;;1.80;;
4756;SDS011;2392;52.578;13.426;2022-08-21T11:20:59;3.23;;;2.13;;
4756;SDS011;2392;52.578;13.426;2022-08-21T11:23:33;4.57;;;1.73;;
4756;SDS011;2392;52.578;13.426;2022-08-21T11:26:09;2.00;;;1.80;;
4756;SDS011;2392;52.578;13.426;2022-08-21T11:28:43;3.53;;;1.63;;
4756;SDS011;2392;52.578;13.426;2022-08-21T11:31:21;2.50;;;2.20;;
4756;SDS011;2392;52.578;13.426;2022-08-21T11:34:03;3.47;;;1.80;;
4756;SDS011;2392;52.578;13.426;2022-08-21T11:36:40;3.37;;;1.20;;
4756;SDS011;2392;52.578;13.426;2022-08-21T11:39:19;1.33;;;1.23;;
4756;SDS011;2392;52.578;13.426;2022-08-21T11:41:54;2.60;;;1.20;;
4756;SDS011;2392;52.578;13.426;2022-08-21T11:44:33;1.40;;;1.30;;
4756;SDS011;2392;52.578;13.426;2022-08-21T11:47:13;1.20;;;1.10;;
4756;SDS011;2392;52.578;13.426;2022-08-21T11:49:50;1.17;;;1.00;;
4756;SDS011;2392;52.578;13.426;2022-08-21T11:52:28;1.10;;;1.10;;
4756;SDS011;2392;52.578;13.426;2022-08-21T11:55:00;0.73;;;0.70;;
4756;SDS011;2392;52.578;13.426;2022-08-21T11:57:32;1.47;;;1.13;;
4756;SDS011;2392;52.578;13.426;2022-08-21T12:00:05;2.87;;;1.00;;
4756;SDS011;2392;52.578;13.426;2022-08-21T12:02:43;2.37;;;1.50;;
4756;SDS011;2392;52.578;13.426;2022-08-21T12:05:22;3.90;;;3.50;;
4756;SDS011;2392;52.578;13.426;2022-08-21T12:07:59;2.90;;;1.50;;
4756;SDS011;2392;52.578;13.426;2022-08-21T12:10:31;1.10;;;1.10;;
4756;SDS011;2392;52.578;13.426;2022-08-21T12:13:07;1.10;;;1.00;;
4756;SDS011;2392;52.578;13.426;2022-08-21T12:15:36;1.10;;;1.10;;
4756;SDS011;2392;52.578;13.426;2022-08-21T12:18:04;1.87;;;1.17;;
4756;SDS011;2392;52.578;13.426;2022-08-21T12:20:34;1.90;;;1.03;;
4756;SDS011;2392;52.578;13.426;2022-08-21T12:23:05;1.37;;;1.27;;
4756;SDS011;2392;52.578;13.426;2022-08-21T12:25:47;1.93;;;1.13;;
4756;SDS011;2392;52.578;13.426;2022-08-21T12:28:26;1.70;;;1.47;;
4756;SDS011;2392;52.578;13.426;2022-08-21T12:30:55;2.60;;;1.53;;
4756;SDS011;2392;52.578;13.426;2022-08-21T12:33:24;1.83;;;1.40;;
4756;SDS011;2392;52.578;13.426;2022-08-21T12:36:01;2.50;;;1.53;;
4756;SDS011;2392;52.578;13.426;2022-08-21T12:38:32;1.13;;;1.10;;
4756;SDS011;2392;52.578;13.426;2022-08-21T12:41:06;2.23;;;1.30;;
4756;SDS011;2392;52.578;13.426;2022-08-21T12:43:40;3.13;;;1.30;;
4756;SDS011;2392;52.578;13.426;2022-08-21T12:46:14;2.40;;;1.17;;
4756;SDS011;2392;52.578;13.426;2022-08-21T12:48:44;1.30;;;1.20;;
4756;SDS011;2392;52.578;13.426;2022-08-21T12:51:17;2.93;;;1.40;;
4756;SDS011;2392;52.578;13.426;2022-08-21T12:53:49;1.33;;;1.03;;
4756;SDS011;2392;52.578;13.426;2022-08-21T12:56:18;2.17;;;1.10;;
4756;SDS011;2392;52.578;13.426;2022-08-21T12:58:49;2.20;;;1.50;;
4756;SDS011;2392;52.578;13.426;2022-08-21T13:01:19;1.83;;;1.50;;
4756;SDS011;2392;52.578;13.426;2022-08-21T13:03:50;4.73;;;1.93;;
4756;SDS011;2392;52.578;13.426;2022-08-21T13:06:20;2.07;;;1.37;;
4756;SDS011;2392;52.578;13.426;2022-08-21T13:08:52;1.87;;;1.67;;
4756;SDS011;2392;52.578;13.426;2022-08-21T13:11:25;2.03;;;1.07;;
4756;SDS011;2392;52.578;13.426;2022-08-21T13:13:53;1.93;;;1.13;;
4756;SDS011;2392;52.578;13.426;2022-08-21T13:16:22;2.40;;;1.70;;
4756;SDS011;2392;52.578;13.426;2022-08-21T13:18:53;1.77;;;1.23;;
4756;SDS011;2392;52.578;13.426;2022-08-21T13:21:27;2.00;;;1.50;;
4756;SDS011;2392;52.578;13.426;2022-08-21T13:24:06;1.57;;;1.47;;
4756;SDS011;2392;52.578;13.426;2022-08-21T13:26:37;3.10;;;1.30;;
4756;SDS011;2392;52.578;13.426;2022-08-21T13:29:07;3.20;;;1.37;;
4756;SDS011;2392;52.578;13.426;2022-08-21T13:31:36;3.63;;;1.50;;
4756;SDS011;2392;52.578;13.426;2022-08-21T13:34:06;3.20;;;1.77;;
4756;SDS011;2392;52.578;13.426;2022-08-21T13:36:36;1.90;;;1.80;;
4756;SDS011;2392;52.578;13.426;2022-08-21T13:39:07;5.13;;;1.80;;
4756;SDS011;2392;52.578;13.426;2022-08-21T13:41:37;2.73;;;1.80;;
4756;SDS011;2392;52.578;13.426;2022-08-21T13:44:15;5.50;;;1.67;;
4756;SDS011;2392;52.578;13.426;2022-08-21T13:46:43;3.10;;;1.60;;
4756;SDS011;2392;52.578;13.426;2022-08-21T13:49:12;3.27;;;1.83;;
4756;SDS011;2392;52.578;13.426;2022-08-21T13:51:41;1.80;;;1.70;;
4756;SDS011;2392;52.578;13.426;2022-08-21T13:54:16;2.70;;;1.97;;
4756;SDS011;2392;52.578;13.426;2022-08-21T13:56:51;1.70;;;1.60;;
4756;SDS011;2392;52.578;13.426;2022-08-21T13:59:27;1.87;;;1.50;;
4756;SDS011;2392;52.578;13.426;2022-08-21T14:01:56;3.43;;;1.60;;
4756;SDS011;2392;52.578;13.426;2022-08-21T14:04:29;3.67;;;2.30;;
4756;SDS011;2392;52.578;13.426;2022-08-21T14:07:00;3.10;;;1.80;;
4756;SDS011;2392;52.578;13.426;2022-08-21T14:09:31;2.60;;;1.70;;
4756;SDS011;2392;52.578;13.426;2022-08-21T14:12:02;5.43;;;2.63;;
4756;SDS011;2392;52.578;13.426;2022-08-21T14:14:40;3.43;;;1.83;;
4756;SDS011;2392;52.578;13.426;2022-08-21T14:17:09;2.40;;;1.40;;
4756;SDS011;2392;52.578;13.426;2022-08-21T14:19:51;6.53;;;2.37;;
4756;SDS011;2392;52.578;13.426;2022-08-21T14:22:22;10.40;;;2.30;;
4756;SDS011;2392;52.578;13.426;2022-08-21T14:24:58;2.93;;;2.17;;
4756;SDS011;2392;52.578;13.426;2022-08-21T14:27:28;2.80;;;2.07;;
4756;SDS011;2392;52.578;13.426;2022-08-21T14:29:58;5.00;;;2.30;;
4756;SDS011;2392;52.578;13.426;2022-08-21T14:32:27;4.03;;;1.33;;
4756;SDS011;2392;52.578;13.426;2022-08-21T14:34:56;3.40;;;2.07;;
4756;SDS011;2392;52.578;13.426;2022-08-21T14:37:23;3.40;;;2.00;;
4756;SDS011;2392;52.578;13.426;2022-08-21T14:39:50;3.03;;;1.93;;
4756;SDS011;2392;52.578;13.426;2022-08-21T14:42:17;3.47;;;1.80;;
4756;SDS011;2392;52.578;13.426;2022-08-21T14:44:45;5.40;;;2.00;;
4756;SDS011;2392;52.578;13.426;2022-08-21T14:47:13;8.67;;;1.93;;
4756;SDS011;2392;52.578;13.426;2022-08-21T14:49:40;2.97;;;1.67;;
4756;SDS011;2392;52.578;13.426;2022-08-21T14:52:07;3.17;;;2.30;;
4756;SDS011;2392;52.578;13.426;2022-08-21T14:54:34;4.60;;;1.80;;
4756;SDS011;2392;52.578;13.426;2022-08-21T14:57:03;4.50;;;2.43;;
4756;SDS011;2392;52.578;13.426;2022-08-21T14:59:34;4.40;;;2.60;;
4756;SDS011;2392;52.578;13.426;2022-08-21T15:02:02;6.03;;;2.17;;
4756;SDS011;2392;52.578;13.426;2022-08-21T15:04:31;7.27;;;3.83;;
4756;SDS011;2392;52.578;13.426;2022-08-21T15:06:58;3.77;;;2.20;;
4756;SDS011;2392;52.578;13.426;2022-08-21T15:09:25;4.70;;;1.97;;
4756;SDS011;2392;52.578;13.426;2022-08-21T15:11:53;3.23;;;2.00;;
4756;SDS011;2392;52.578;13.426;2022-08-21T15:14:24;5.53;;;2.20;;
4756;SDS011;2392;52.578;13.426;2022-08-21T15:16:53;4.07;;;2.57;;